04:46
Airports
History
Links
Donate
Help keep this website running!
PayPal
Bitcoin
This page is community maintained. The information is intended for PC simulator navigation or reference.
Always use approved charts for navigation.
TVSU
Union Island Intl
Union Island Intl (TVSU)
Clifton, Grenadines, Saint Vincent and the Grenadines
(C)
Lat/Lng:12° 35' 53.98" N / 61° 24' 54" W
12.598328 / -61.415001
Elevation:16'ft / 5mMSL
ID / ICAO:TVSU
Runways:1
Longest:08-26
Asphalt 756m / 2,482ft
Controlled:Yes
Nearby Weather01:00 GMT 2017-01-15
Nearby weather at TVSV, St. Vincent/E T Joshua located 40.1 nautical miles from TVSU
Altimeter: 29.97
Visibility: 6.2 statute miles
Wind: 9 knots (from 060°)
Temp: 26°c / 79°f
Humidity: 65.4%

METAR: TVSV 150100Z 06009KT 9999 SCT015 26/19 Q1015

(Powered by phpweather)
Nearby VORs <50NM
Nearby NDBs
Runway 08 / 26
Dimensions:756.4 x 18m 2482' x 59'ft
Surface:Asphalt
Runway 08 [A]Runway 26 [B]
Heading:067°TH 247°TH
Lat:
Lng:
12° 35' 49.16"N
61° 25' 5.65"W
12° 35' 58.8"N
61° 24' 42.36"W
User Notes and Comments
12° 35' 53.98" N / 61° 24' 54" W
Distance To
Airport ID:
Nearby Airports
(C) Canouan Jetport 8.5 NM
TVSC NE 35°
(U) Carriacou/Lauristo 9.2 NM
TGPZ SSW 204°
(C) Mustique 25.5 NM
TVSM NE 38°
(C) Bequia/J F Mitchell 28.9 NM
TVSB NNE 20°
(C) St. Vincent/E T Joshua 40.1 NM
TVSV ( WX ) NNE 20°
(C) Grenada/Bishop International 48.1 NM
TGPY ( WX ) SSW 211°
(C) St. Lucia/Hewanorra Intl 84.4 NM
TLPL ( WX ) NNE 21°
VFR Chart
Flight Planning at SkyVector.com